createdAt,value
2022-08-17T00:02:26.960Z,20.74
2022-08-17T00:04:55.200Z,20.71
2022-08-17T00:07:22.905Z,20.83
2022-08-17T00:09:49.702Z,20.76
2022-08-17T00:12:51.263Z,20.60
2022-08-17T00:15:05.337Z,20.65
2022-08-17T00:17:32.228Z,20.66
2022-08-17T00:20:00.347Z,20.63
2022-08-17T00:22:34.061Z,20.69
2022-08-17T00:25:06.226Z,20.57
2022-08-17T00:27:33.159Z,20.65
2022-08-17T00:30:00.076Z,20.60
2022-08-17T00:33:15.572Z,20.50
2022-08-17T00:35:18.389Z,20.54
2022-08-17T00:37:45.343Z,20.44
2022-08-17T00:40:14.393Z,20.37
2022-08-17T00:42:42.800Z,20.26
2022-08-17T00:45:17.510Z,20.22
2022-08-17T00:47:44.411Z,20.18
2022-08-17T00:50:15.333Z,20.32
2022-08-17T00:52:56.313Z,20.20
2022-08-17T00:55:27.663Z,20.06
2022-08-17T00:57:58.753Z,19.97
2022-08-17T01:00:30.032Z,20.11
2022-08-17T01:03:05.141Z,20.00
2022-08-17T01:05:34.373Z,19.96
2022-08-17T01:08:02.285Z,20.15
2022-08-17T01:11:00.582Z,19.94
2022-08-17T01:13:40.685Z,19.83
2022-08-17T01:16:17.303Z,19.90
2022-08-17T01:18:48.317Z,19.84
2022-08-17T01:21:36.774Z,19.72
2022-08-17T01:24:04.523Z,19.73
2022-08-17T01:26:32.305Z,19.61
2022-08-17T01:29:01.239Z,19.55
2022-08-17T01:31:32.178Z,19.59
2022-08-17T01:34:02.416Z,19.69
2022-08-17T01:36:29.328Z,19.57
2022-08-17T01:38:56.287Z,19.44
2022-08-17T01:41:24.452Z,19.45
2022-08-17T01:43:55.751Z,19.30
2022-08-17T01:46:31.041Z,19.35
2022-08-17T01:48:59.480Z,19.27
2022-08-17T01:51:31.197Z,19.12
2022-08-17T01:54:05.453Z,19.11
2022-08-17T01:56:34.329Z,19.14
2022-08-17T01:59:05.364Z,19.25
2022-08-17T02:01:34.875Z,19.13
2022-08-17T02:04:03.280Z,19.05
2022-08-17T02:06:45.275Z,19.08
2022-08-17T02:09:22.357Z,19.10
2022-08-17T02:11:54.030Z,19.07
2022-08-17T02:14:22.462Z,19.19
2022-08-17T02:16:49.546Z,19.65
2022-08-17T02:19:17.863Z,20.06
2022-08-17T02:21:48.222Z,20.26
2022-08-17T02:24:58.010Z,20.33
2022-08-17T02:27:07.677Z,20.36
2022-08-17T02:29:34.734Z,20.09
2022-08-17T02:32:01.624Z,19.70
2022-08-17T02:34:29.086Z,19.43
2022-08-17T02:36:56.556Z,19.46
2022-08-17T02:39:23.514Z,19.99
2022-08-17T02:41:50.535Z,20.13
2022-08-17T02:44:35.427Z,20.21
2022-08-17T02:47:04.627Z,20.22
2022-08-17T02:49:31.566Z,20.21
2022-08-17T02:51:59.026Z,19.91
2022-08-17T02:54:39.693Z,20.18
2022-08-17T02:57:09.947Z,20.09
2022-08-17T02:59:43.223Z,19.65
2022-08-17T03:02:15.622Z,19.26
2022-08-17T03:04:42.528Z,19.10
2022-08-17T03:07:09.550Z,18.85
2022-08-17T03:09:36.333Z,18.88
2022-08-17T03:12:11.290Z,18.79
2022-08-17T03:14:41.999Z,19.41
2022-08-17T03:17:15.887Z,19.79
2022-08-17T03:19:44.567Z,19.88
2022-08-17T03:22:37.395Z,19.74
2022-08-17T03:24:58.492Z,19.53
2022-08-17T03:27:25.369Z,19.38
2022-08-17T03:29:52.235Z,19.12
2022-08-17T03:32:19.041Z,18.93
2022-08-17T03:34:45.841Z,18.82
2022-08-17T03:37:12.683Z,18.73
2022-08-17T03:39:39.780Z,18.55
2022-08-17T03:42:32.015Z,18.60
2022-08-17T03:45:01.069Z,18.42
2022-08-17T03:47:28.834Z,18.40
2022-08-17T03:49:55.744Z,18.35
2022-08-17T03:52:22.648Z,18.19
2022-08-17T03:54:49.458Z,18.18
2022-08-17T03:57:16.358Z,18.30
2022-08-17T03:59:43.243Z,18.16
2022-08-17T04:02:17.825Z,18.08
2022-08-17T04:04:44.668Z,18.26
2022-08-17T04:07:12.019Z,18.19
2022-08-17T04:09:39.412Z,18.14
2022-08-17T04:12:06.604Z,18.12
2022-08-17T04:14:34.198Z,18.08
2022-08-17T04:17:00.991Z,18.14
2022-08-17T04:19:27.881Z,18.21
2022-08-17T04:21:54.702Z,18.19
2022-08-17T04:24:21.561Z,18.14
2022-08-17T04:26:54.263Z,18.19
2022-08-17T04:29:21.879Z,18.25
2022-08-17T04:31:49.351Z,18.32
2022-08-17T04:34:16.294Z,18.22
2022-08-17T04:36:50.379Z,18.23
2022-08-17T04:39:17.504Z,18.25
2022-08-17T04:41:44.283Z,18.40
2022-08-17T04:44:12.044Z,18.43
2022-08-17T04:46:38.923Z,18.41
2022-08-17T04:49:09.185Z,18.45
2022-08-17T04:51:39.507Z,18.64
2022-08-17T04:54:18.231Z,18.64
2022-08-17T04:56:45.754Z,18.69
2022-08-17T04:59:18.307Z,18.72
2022-08-17T05:01:48.587Z,18.71
2022-08-17T05:04:33.910Z,18.79
2022-08-17T05:07:02.994Z,18.99
2022-08-17T05:09:29.806Z,19.12
2022-08-17T05:12:01.287Z,19.35
2022-08-17T05:14:33.031Z,19.45
2022-08-17T05:17:01.729Z,19.50
2022-08-17T05:19:33.988Z,19.57
2022-08-17T05:22:07.357Z,19.65
2022-08-17T05:24:39.852Z,19.73
2022-08-17T05:27:10.991Z,19.77
2022-08-17T05:29:44.638Z,19.85
2022-08-17T05:32:38.419Z,19.92
2022-08-17T05:34:59.730Z,20.11
2022-08-17T05:37:26.672Z,20.34
2022-08-17T05:39:54.094Z,20.49
2022-08-17T05:42:21.035Z,20.63
2022-08-17T05:44:47.911Z,20.72
2022-08-17T05:47:14.791Z,20.80
2022-08-17T05:49:41.663Z,20.88
2022-08-17T05:52:20.046Z,20.93
2022-08-17T05:55:12.913Z,21.04
2022-08-17T05:57:53.718Z,21.29
2022-08-17T06:00:30.390Z,21.45
2022-08-17T06:03:28.624Z,21.62
2022-08-17T06:06:10.716Z,21.73
2022-08-17T06:08:40.227Z,21.83
2022-08-17T06:11:07.208Z,21.96
2022-08-17T06:13:40.599Z,22.07
2022-08-17T06:16:31.079Z,22.21
2022-08-17T06:19:19.899Z,22.37
2022-08-17T06:21:51.198Z,22.51
2022-08-17T06:24:23.932Z,22.65
2022-08-17T06:26:53.970Z,22.75
2022-08-17T06:29:38.801Z,22.84
2022-08-17T06:32:09.461Z,22.91
2022-08-17T06:34:39.827Z,23.03
2022-08-17T06:37:16.062Z,23.22
2022-08-17T06:39:48.702Z,23.37
2022-08-17T06:43:00.850Z,23.52
2022-08-17T06:45:29.953Z,23.67
2022-08-17T06:48:06.085Z,23.82
2022-08-17T06:50:58.147Z,23.96
2022-08-17T06:53:47.745Z,24.09
2022-08-17T06:56:53.071Z,24.22
2022-08-17T06:59:19.765Z,24.30
2022-08-17T07:01:50.005Z,24.39
2022-08-17T07:04:25.329Z,24.57
2022-08-17T07:07:11.669Z,24.65
2022-08-17T07:09:39.010Z,24.85
2022-08-17T07:12:14.680Z,25.01
2022-08-17T07:15:11.211Z,25.22
2022-08-17T07:17:47.463Z,25.43
2022-08-17T07:20:19.143Z,25.53
2022-08-17T07:23:00.014Z,25.56
2022-08-17T07:25:28.357Z,25.60
2022-08-17T07:27:57.842Z,25.74
2022-08-17T07:30:28.084Z,25.86
2022-08-17T07:33:12.584Z,25.95
2022-08-17T07:35:45.069Z,26.13
2022-08-17T07:38:25.725Z,26.22
2022-08-17T07:40:56.226Z,26.30
2022-08-17T07:43:34.310Z,26.36
2022-08-17T07:46:20.042Z,26.43
2022-08-17T07:48:54.469Z,26.61
2022-08-17T07:51:31.741Z,26.63
2022-08-17T07:54:14.179Z,26.69
2022-08-17T07:56:49.226Z,26.80
2022-08-17T07:59:23.751Z,26.91
2022-08-17T08:01:57.663Z,27.10
2022-08-17T08:04:59.552Z,27.22
2022-08-17T08:07:35.983Z,27.30
2022-08-17T08:10:05.460Z,27.37
2022-08-17T08:12:35.165Z,27.50
2022-08-17T08:15:17.552Z,27.58
2022-08-17T08:17:55.399Z,27.69
2022-08-17T08:20:52.265Z,27.77
2022-08-17T08:23:37.098Z,27.92
2022-08-17T08:26:18.545Z,27.99
2022-08-17T08:29:31.681Z,28.03
2022-08-17T08:32:30.805Z,28.12
2022-08-17T08:35:22.448Z,28.28
2022-08-17T08:38:07.851Z,28.44
2022-08-17T08:40:34.644Z,28.47
2022-08-17T08:43:32.405Z,28.50
2022-08-17T08:46:08.952Z,28.59
2022-08-17T08:49:10.286Z,28.70
2022-08-17T08:52:10.214Z,28.81
2022-08-17T08:54:56.336Z,28.88
2022-08-17T08:57:38.886Z,28.97
2022-08-17T09:00:08.609Z,29.01
2022-08-17T09:02:59.980Z,29.02
2022-08-17T09:05:42.438Z,29.07
2022-08-17T09:08:27.834Z,29.14
2022-08-17T09:11:05.072Z,29.23
2022-08-17T09:13:46.850Z,29.28
2022-08-17T09:16:29.706Z,29.33
2022-08-17T09:19:05.739Z,29.48
2022-08-17T09:21:51.621Z,29.56
2022-08-17T09:24:56.761Z,29.67
2022-08-17T09:27:57.242Z,29.69
2022-08-17T09:30:32.694Z,29.71
2022-08-17T09:33:04.830Z,29.75
2022-08-17T09:35:38.065Z,29.76
2022-08-17T09:38:32.575Z,29.76
2022-08-17T09:41:25.134Z,29.83
2022-08-17T09:44:23.690Z,29.80
2022-08-17T09:46:52.366Z,29.85
2022-08-17T09:49:25.452Z,29.96
2022-08-17T09:51:58.618Z,29.98
2022-08-17T09:54:40.824Z,29.96
2022-08-17T09:57:28.717Z,30.04
2022-08-17T10:00:21.732Z,30.17
2022-08-17T10:02:58.741Z,30.25
2022-08-17T10:05:28.192Z,30.25
2022-08-17T10:08:07.382Z,30.36
2022-08-17T10:10:56.736Z,30.36
2022-08-17T10:14:38.109Z,30.44
2022-08-17T10:17:30.374Z,30.44
2022-08-17T10:20:00.431Z,30.46
2022-08-17T10:22:37.875Z,30.43
2022-08-17T10:25:23.459Z,30.46
2022-08-17T10:27:57.657Z,30.45
2022-08-17T10:30:28.766Z,30.47
2022-08-17T10:32:59.098Z,30.64
2022-08-17T10:36:06.395Z,30.68
2022-08-17T10:38:43.140Z,30.68
2022-08-17T10:41:15.729Z,30.69
2022-08-17T10:44:39.852Z,30.72
2022-08-17T10:47:13.627Z,30.62
2022-08-17T10:49:48.712Z,30.71
2022-08-17T10:52:41.653Z,30.76
2022-08-17T10:55:18.184Z,30.80
2022-08-17T10:57:49.067Z,30.91
2022-08-17T11:00:42.358Z,31.01
2022-08-17T11:03:20.710Z,30.99
2022-08-17T11:06:01.195Z,30.98
2022-08-17T11:08:37.030Z,30.97
2022-08-17T11:11:15.800Z,30.69
2022-08-17T11:13:51.250Z,30.70
2022-08-17T11:16:30.427Z,30.64
2022-08-17T11:19:28.241Z,30.73
2022-08-17T11:22:19.073Z,30.78
2022-08-17T11:24:49.694Z,30.81
2022-08-17T11:27:27.461Z,30.82
2022-08-17T11:30:01.839Z,30.93
2022-08-17T11:32:48.673Z,31.03
2022-08-17T11:35:22.587Z,31.14
2022-08-17T11:38:20.365Z,31.17
2022-08-17T11:41:08.211Z,31.26
2022-08-17T11:43:42.647Z,31.17
2022-08-17T11:46:39.350Z,31.29
2022-08-17T11:49:18.962Z,31.20
2022-08-17T11:51:55.013Z,31.15
2022-08-17T11:54:33.642Z,31.33
2022-08-17T11:57:24.121Z,31.45
2022-08-17T11:59:59.184Z,31.44
2022-08-17T12:02:25.921Z,31.43
2022-08-17T12:05:17.006Z,31.50
2022-08-17T12:07:52.165Z,31.52
2022-08-17T12:10:23.657Z,31.85
2022-08-17T12:12:53.289Z,32.01
2022-08-17T12:15:28.902Z,32.07
2022-08-17T12:17:56.858Z,31.80
2022-08-17T12:20:28.985Z,31.72
2022-08-17T12:23:09.834Z,31.80
2022-08-17T12:25:47.196Z,31.86
2022-08-17T12:28:27.108Z,31.88
2022-08-17T12:30:57.057Z,31.85
2022-08-17T12:33:28.372Z,31.87
2022-08-17T12:36:03.349Z,31.87
2022-08-17T12:38:33.675Z,31.77
2022-08-17T12:41:04.581Z,31.78
2022-08-17T12:43:31.379Z,31.90
2022-08-17T12:46:00.794Z,31.76
2022-08-17T12:48:37.457Z,31.84
2022-08-17T12:51:06.561Z,31.86
2022-08-17T12:53:34.099Z,31.88
2022-08-17T12:56:06.992Z,31.88
2022-08-17T12:58:49.634Z,31.92
2022-08-17T13:01:17.623Z,32.05
2022-08-17T13:03:51.120Z,31.90
2022-08-17T13:06:35.599Z,31.87
2022-08-17T13:09:35.869Z,31.93
2022-08-17T13:12:08.104Z,32.00
2022-08-17T13:14:35.196Z,31.99
2022-08-17T13:17:05.421Z,31.96
2022-08-17T13:19:40.688Z,31.97
2022-08-17T13:22:12.376Z,32.02
2022-08-17T13:24:53.950Z,31.98
2022-08-17T13:27:23.453Z,31.80
2022-08-17T13:29:53.980Z,31.75
2022-08-17T13:32:34.140Z,31.77
2022-08-17T13:35:14.172Z,31.85
2022-08-17T13:37:58.504Z,31.92
2022-08-17T13:40:30.619Z,31.99
2022-08-17T13:42:58.759Z,32.08
2022-08-17T13:45:35.222Z,32.22
2022-08-17T13:48:13.573Z,32.14
2022-08-17T13:50:47.385Z,32.30
2022-08-17T13:53:25.069Z,32.29
2022-08-17T13:55:56.223Z,32.28
2022-08-17T13:58:31.028Z,32.22
2022-08-17T14:00:58.800Z,32.20
2022-08-17T14:03:25.637Z,32.23
2022-08-17T14:05:53.302Z,32.20
2022-08-17T14:08:20.749Z,32.22
2022-08-17T14:10:58.317Z,32.26
2022-08-17T14:13:25.306Z,32.21
2022-08-17T14:15:55.985Z,32.24
2022-08-17T14:18:35.444Z,32.24
2022-08-17T14:21:10.972Z,32.34
2022-08-17T14:23:38.337Z,32.45
2022-08-17T14:26:05.400Z,32.43
2022-08-17T14:28:32.242Z,32.37
2022-08-17T14:31:00.949Z,32.35
2022-08-17T14:33:30.777Z,32.31
2022-08-17T14:35:57.671Z,32.31
2022-08-17T14:38:24.630Z,32.34
2022-08-17T14:40:51.898Z,32.32
2022-08-17T14:43:18.916Z,32.29
2022-08-17T14:45:45.721Z,32.29
2022-08-17T14:48:12.652Z,32.29
2022-08-17T14:50:42.533Z,32.31
2022-08-17T14:53:11.804Z,32.29
2022-08-17T14:55:38.551Z,32.28
2022-08-17T14:58:05.430Z,32.28
2022-08-17T15:00:33.063Z,32.21
2022-08-17T15:03:01.714Z,32.22
2022-08-17T15:05:32.852Z,32.22
2022-08-17T15:08:01.260Z,32.14
2022-08-17T15:10:28.286Z,32.25
2022-08-17T15:12:55.516Z,32.18
2022-08-17T15:15:23.158Z,32.09
2022-08-17T15:17:49.936Z,32.08
2022-08-17T15:20:21.279Z,32.06
2022-08-17T15:22:49.564Z,32.07
2022-08-17T15:25:18.950Z,32.06
2022-08-17T15:27:45.831Z,32.06
2022-08-17T15:30:13.068Z,32.08
2022-08-17T15:32:45.633Z,32.10
2022-08-17T15:35:19.592Z,32.07
2022-08-17T15:37:54.764Z,32.06
2022-08-17T15:40:21.601Z,32.10
2022-08-17T15:42:48.488Z,32.04
2022-08-17T15:45:15.274Z,31.98
2022-08-17T15:47:42.183Z,32.04
2022-08-17T15:50:09.743Z,32.01
2022-08-17T15:52:36.616Z,32.00
2022-08-17T15:55:04.834Z,31.99
2022-08-17T15:57:31.899Z,32.01
2022-08-17T15:59:59.202Z,32.09
2022-08-17T16:03:14.923Z,32.10
2022-08-17T16:05:24.129Z,32.14
2022-08-17T16:07:52.730Z,32.12
2022-08-17T16:10:20.011Z,32.08
2022-08-17T16:12:49.767Z,32.11
2022-08-17T16:15:18.039Z,32.16
2022-08-17T16:17:45.032Z,32.14
2022-08-17T16:20:19.510Z,32.18
2022-08-17T16:22:50.206Z,32.18
2022-08-17T16:25:22.471Z,32.21
2022-08-17T16:27:51.257Z,32.29
2022-08-17T16:30:18.296Z,32.30
2022-08-17T16:32:46.491Z,32.37
2022-08-17T16:35:14.494Z,32.40
2022-08-17T16:37:44.600Z,32.44
2022-08-17T16:40:13.741Z,32.35
2022-08-17T16:42:41.938Z,32.29
2022-08-17T16:45:09.262Z,32.26
2022-08-17T16:47:37.219Z,32.12
2022-08-17T16:50:06.698Z,32.07
2022-08-17T16:52:33.928Z,31.91
2022-08-17T16:55:03.610Z,31.89
2022-08-17T16:57:30.815Z,31.88
2022-08-17T16:59:58.481Z,31.81
2022-08-17T17:02:41.430Z,31.72
2022-08-17T17:05:16.711Z,31.63
2022-08-17T17:07:56.281Z,31.59
2022-08-17T17:10:52.832Z,31.47
2022-08-17T17:13:50.349Z,31.35
2022-08-17T17:16:29.119Z,31.24
2022-08-17T17:19:07.996Z,31.19
2022-08-17T17:21:49.856Z,31.11
2022-08-17T17:24:57.012Z,30.89
2022-08-17T17:27:31.206Z,30.84
2022-08-17T17:30:10.248Z,30.76
2022-08-17T17:32:50.817Z,30.73
2022-08-17T17:35:24.319Z,30.57
2022-08-17T17:37:54.057Z,30.54
2022-08-17T17:40:31.748Z,30.42
2022-08-17T17:43:14.560Z,30.25
2022-08-17T17:46:21.899Z,30.17
2022-08-17T17:48:48.981Z,30.13
2022-08-17T17:52:09.555Z,29.99
2022-08-17T17:54:34.175Z,29.81
2022-08-17T17:57:19.632Z,29.70
2022-08-17T17:59:53.452Z,29.63
2022-08-17T18:02:38.523Z,29.53
2022-08-17T18:05:31.545Z,29.46
2022-08-17T18:08:11.114Z,29.40
2022-08-17T18:10:41.039Z,29.33
2022-08-17T18:13:34.137Z,29.19
2022-08-17T18:16:03.719Z,29.04
2022-08-17T18:18:32.485Z,28.92
2022-08-17T18:21:02.497Z,28.75
2022-08-17T18:23:29.381Z,28.49
2022-08-17T18:25:57.165Z,28.29
2022-08-17T18:28:27.954Z,28.24
2022-08-17T18:31:07.187Z,28.25
2022-08-17T18:33:38.121Z,28.28
2022-08-17T18:36:05.730Z,27.99
2022-08-17T18:38:33.691Z,27.81
2022-08-17T18:41:23.123Z,27.61
2022-08-17T18:44:06.098Z,27.60
2022-08-17T18:46:35.817Z,27.88
2022-08-17T18:49:24.973Z,28.32
2022-08-17T18:52:09.676Z,28.67
2022-08-17T18:54:36.988Z,28.79
2022-08-17T18:57:06.648Z,28.50
2022-08-17T18:59:44.371Z,27.92
2022-08-17T19:02:20.572Z,27.48
2022-08-17T19:05:03.237Z,27.29
2022-08-17T19:07:37.813Z,27.55
2022-08-17T19:10:22.910Z,27.85
2022-08-17T19:13:03.363Z,27.72
2022-08-17T19:16:14.069Z,27.76
2022-08-17T19:18:51.104Z,26.85
2022-08-17T19:21:20.743Z,27.18
2022-08-17T19:24:05.192Z,27.28
2022-08-17T19:26:51.241Z,26.71
2022-08-17T19:29:34.254Z,26.41
2022-08-17T19:32:02.154Z,26.14
2022-08-17T19:34:35.791Z,25.97
2022-08-17T19:37:14.224Z,26.54
2022-08-17T19:39:59.078Z,26.40
2022-08-17T19:42:43.943Z,26.11
2022-08-17T19:45:22.850Z,26.20
2022-08-17T19:48:17.497Z,25.76
2022-08-17T19:50:51.057Z,25.91
2022-08-17T19:53:41.745Z,25.97
2022-08-17T19:56:44.486Z,26.23
2022-08-17T19:59:29.039Z,26.54
2022-08-17T20:02:19.377Z,26.78
2022-08-17T20:04:49.241Z,26.81
2022-08-17T20:07:24.570Z,26.69
2022-08-17T20:10:07.533Z,26.61
2022-08-17T20:12:37.142Z,26.58
2022-08-17T20:15:11.994Z,26.06
2022-08-17T20:17:41.610Z,25.75
2022-08-17T20:20:33.107Z,25.32
2022-08-17T20:23:09.862Z,25.75
2022-08-17T20:25:47.482Z,25.58
2022-08-17T20:28:24.484Z,25.94
2022-08-17T20:30:52.477Z,25.36
2022-08-17T20:33:37.418Z,25.61
2022-08-17T20:36:19.495Z,25.85
2022-08-17T20:38:57.058Z,25.00
2022-08-17T20:41:27.253Z,24.83
2022-08-17T20:43:56.860Z,24.56
2022-08-17T20:46:37.380Z,24.26
2022-08-17T20:49:22.689Z,24.42
2022-08-17T20:52:01.590Z,24.65
2022-08-17T20:54:54.230Z,24.70
2022-08-17T20:57:33.342Z,25.24
2022-08-17T21:00:42.211Z,25.43
2022-08-17T21:03:21.004Z,25.65
2022-08-17T21:06:00.308Z,25.70
2022-08-17T21:08:31.209Z,25.68
2022-08-17T21:10:59.613Z,25.69
2022-08-17T21:13:55.773Z,25.63
2022-08-17T21:16:39.626Z,25.62
2022-08-17T21:19:18.695Z,25.56
2022-08-17T21:22:22.972Z,25.48
2022-08-17T21:25:12.716Z,25.42
2022-08-17T21:28:03.762Z,25.32
2022-08-17T21:30:30.509Z,25.27
2022-08-17T21:33:17.349Z,25.26
2022-08-17T21:35:51.782Z,25.04
2022-08-17T21:38:33.201Z,24.97
2022-08-17T21:41:00.020Z,24.97
2022-08-17T21:43:34.029Z,25.01
2022-08-17T21:46:08.067Z,24.97
2022-08-17T21:48:48.201Z,24.10
2022-08-17T21:51:20.518Z,23.70
2022-08-17T21:53:55.002Z,23.58
2022-08-17T21:56:38.803Z,23.54
2022-08-17T21:59:16.096Z,23.30
2022-08-17T22:01:43.958Z,23.15
2022-08-17T22:04:27.170Z,22.99
2022-08-17T22:06:57.546Z,22.87
2022-08-17T22:09:34.120Z,22.88
2022-08-17T22:12:17.637Z,23.52
2022-08-17T22:14:56.882Z,23.93
2022-08-17T22:17:32.661Z,24.11
2022-08-17T22:20:10.492Z,23.85
2022-08-17T22:22:41.277Z,23.60
2022-08-17T22:25:19.952Z,24.02
2022-08-17T22:28:08.380Z,24.23
2022-08-17T22:30:36.801Z,24.01
2022-08-17T22:33:28.501Z,24.06
2022-08-17T22:36:11.854Z,23.77
2022-08-17T22:38:40.626Z,23.10
2022-08-17T22:41:13.655Z,22.76
2022-08-17T22:43:44.685Z,22.52
2022-08-17T22:46:12.902Z,22.36
2022-08-17T22:48:50.533Z,22.25
2022-08-17T22:51:23.315Z,22.90
2022-08-17T22:53:53.924Z,23.37
2022-08-17T22:56:24.887Z,23.61
2022-08-17T22:58:59.154Z,23.56
2022-08-17T23:01:32.780Z,22.80
2022-08-17T23:04:00.978Z,22.80
2022-08-17T23:06:28.808Z,22.71
2022-08-17T23:08:55.878Z,22.33
2022-08-17T23:11:45.931Z,22.13
2022-08-17T23:14:13.534Z,22.04
2022-08-17T23:16:40.764Z,21.86
2022-08-17T23:19:07.481Z,21.84
2022-08-17T23:21:37.146Z,21.71
2022-08-17T23:24:06.402Z,21.71
2022-08-17T23:26:35.921Z,21.95
2022-08-17T23:29:02.653Z,22.50
2022-08-17T23:31:29.495Z,22.53
2022-08-17T23:33:56.274Z,22.75
2022-08-17T23:36:23.082Z,22.51
2022-08-17T23:38:49.853Z,22.55
2022-08-17T23:41:20.434Z,22.05
2022-08-17T23:43:54.602Z,22.39
2022-08-17T23:46:22.305Z,22.63
2022-08-17T23:48:49.114Z,22.55
2022-08-17T23:51:19.358Z,22.11
2022-08-17T23:53:51.393Z,21.74
2022-08-17T23:56:18.246Z,21.82
2022-08-17T23:58:45.077Z,21.59
